Time;durP1;ratioP1;P1;durP2;ratioP2;P2;SDS_P1;SDS_P2;PMS_P1;PMS_P2;Temp;Humidity;BMP_temperature;BMP_pressure;BME280_temperature;BME280_humidity;BME280_pressure;Samples;Min_cycle;Max_cycle;Signal;HPM_P1;HPM_P2
2022/11/08 00:02:49;;;;;;;34.50;15.40;;;3.40;99.90;;;;;;4372808;28;658397;-69
2022/11/08 00:14:51;;;;;;;33.10;14.53;;;3.50;99.90;;;;;;4375377;28;658730;-68
2022/11/08 00:17:38;;;;;;;40.30;16.67;;;3.40;99.90;;;;;;4395799;28;659800;-68
2022/11/08 00:20:25;;;;;;;38.05;16.02;;;3.40;99.90;;;;;;4376991;28;658549;-67
2022/11/08 00:23:14;;;;;;;33.67;14.63;;;3.30;99.90;;;;;;4395946;28;659987;-68
2022/11/08 00:26:01;;;;;;;30.30;14.27;;;3.40;99.90;;;;;;4376424;28;658893;-67
2022/11/08 00:28:48;;;;;;;28.17;14.00;;;3.40;99.90;;;;;;4400463;28;660275;-68
2022/11/08 00:31:35;;;;;;;35.93;15.37;;;3.40;99.90;;;;;;4377067;28;658971;-66
2022/11/08 00:34:22;;;;;;;29.03;14.20;;;3.30;99.90;;;;;;4399621;28;660569;-68
2022/11/08 00:37:09;;;;;;;30.50;15.10;;;3.30;99.90;;;;;;4395582;28;658538;-69
2022/11/08 00:39:58;;;;;;;35.83;16.13;;;3.20;99.90;;;;;;4376784;28;658654;-68
2022/11/08 00:42:45;;;;;;;34.33;14.37;;;3.20;99.90;;;;;;4377136;28;659365;-67
2022/11/08 00:45:32;;;;;;;32.40;15.50;;;3.20;99.90;;;;;;4399289;28;659241;-68
2022/11/08 00:48:19;;;;;;;33.30;15.50;;;3.20;99.90;;;;;;4395520;28;659398;-69
2022/11/08 00:51:08;;;;;;;28.43;15.10;;;3.20;99.90;;;;;;4376651;28;659345;-68
2022/11/08 00:53:55;;;;;;;29.30;14.70;;;3.20;99.90;;;;;;4385586;28;658881;-67
2022/11/08 00:56:44;;;;;;;27.85;13.63;;;3.20;99.90;;;;;;4398987;28;659490;-68
2022/11/08 00:59:31;;;;;;;29.07;14.03;;;3.20;99.90;;;;;;4375986;28;659158;-67
2022/11/08 01:02:18;;;;;;;28.47;14.80;;;3.20;99.90;;;;;;4398897;28;659336;-68
2022/11/08 01:05:06;;;;;;;26.97;13.03;;;3.10;99.90;;;;;;4376473;28;658724;-67
2022/11/08 01:07:53;;;;;;;25.87;13.30;;;3.10;99.90;;;;;;4395783;28;658711;-69
2022/11/08 01:10:41;;;;;;;24.37;12.60;;;3.10;99.90;;;;;;4379816;28;658730;-67
2022/11/08 01:13:29;;;;;;;25.23;12.23;;;3.10;99.90;;;;;;4397541;28;659338;-68
2022/11/08 01:16:17;;;;;;;26.33;13.30;;;3.10;99.90;;;;;;4376162;28;658728;-68
2022/11/08 01:19:05;;;;;;;25.00;12.73;;;3.10;99.90;;;;;;4391082;28;658879;-67
2022/11/08 01:21:52;;;;;;;25.00;10.67;;;3.10;99.90;;;;;;4399232;28;659953;-68
2022/11/08 01:24:39;;;;;;;22.10;11.47;;;3.00;99.90;;;;;;4395033;28;658360;-69
2022/11/08 01:27:26;;;;;;;21.93;9.83;;;3.00;99.90;;;;;;4376157;28;659343;-67
2022/11/08 01:30:15;;;;;;;22.00;10.00;;;3.00;99.90;;;;;;4396157;28;657811;-68
2022/11/08 01:33:02;;;;;;;19.83;10.50;;;3.00;99.90;;;;;;4374860;28;659518;-68
2022/11/08 01:35:49;;;;;;;19.67;9.80;;;3.00;99.90;;;;;;4394801;28;658448;-68
2022/11/08 01:38:37;;;;;;;22.80;10.57;;;3.00;99.90;;;;;;4377047;28;657617;-68
2022/11/08 01:41:25;;;;;;;19.13;10.13;;;3.00;99.90;;;;;;4397370;28;658776;-68
2022/11/08 01:44:15;;;;;;;21.73;9.90;;;3.00;99.90;;;;;;4372142;28;659885;-68
2022/11/08 01:47:03;;;;;;;21.33;9.37;;;3.00;99.90;;;;;;4368159;28;659805;-67
2022/11/08 01:49:50;;;;;;;17.70;9.47;;;3.00;99.90;;;;;;4375886;28;657879;-67
2022/11/08 01:52:39;;;;;;;19.53;9.17;;;3.00;99.90;;;;;;4395818;28;659731;-69
2022/11/08 01:55:27;;;;;;;20.87;9.40;;;2.90;99.90;;;;;;4376877;28;658026;-68
2022/11/08 01:58:15;;;;;;;24.17;9.43;;;3.00;99.90;;;;;;4402485;28;657595;-68
2022/11/08 02:01:02;;;;;;;17.77;9.90;;;3.00;99.90;;;;;;4395251;28;658571;-68
2022/11/08 02:03:51;;;;;;;16.60;9.07;;;2.90;99.90;;;;;;4408968;28;658136;-67
2022/11/08 02:06:39;;;;;;;18.77;9.67;;;2.90;99.90;;;;;;4413911;28;657770;-68
2022/11/08 02:09:26;;;;;;;28.60;12.73;;;2.90;99.90;;;;;;4392352;28;658573;-67
2022/11/08 02:12:14;;;;;;;30.48;14.65;;;2.90;99.90;;;;;;4412525;28;659955;-68
2022/11/08 02:15:01;;;;;;;30.40;13.17;;;2.90;99.90;;;;;;4393214;28;658944;-67
2022/11/08 02:17:48;;;;;;;20.57;11.10;;;2.90;99.90;;;;;;4413071;28;659199;-68
2022/11/08 02:20:37;;;;;;;21.70;9.23;;;2.90;99.90;;;;;;4397249;28;658879;-68
2022/11/08 02:23:26;;;;;;;18.33;9.05;;;2.80;99.90;;;;;;4417464;28;657444;-69
2022/11/08 02:26:15;;;;;;;18.53;9.60;;;2.80;99.90;;;;;;4394476;28;658449;-68
2022/11/08 02:29:24;;;;;;;18.27;9.23;;;2.80;99.90;;;;;;4398657;28;658808;-69
2022/11/08 02:32:11;;;;;;;17.80;8.73;;;2.80;99.90;;;;;;4398215;28;657298;-68
2022/11/08 02:34:58;;;;;;;22.67;9.27;;;2.80;99.90;;;;;;4417158;28;658915;-68
2022/11/08 02:37:45;;;;;;;21.10;8.90;;;2.80;99.90;;;;;;4398234;28;658161;-67
2022/11/08 02:40:45;;;;;;;18.43;9.20;;;2.80;99.90;;;;;;4417194;28;659520;-69
2022/11/08 02:43:33;;;;;;;14.97;8.13;;;2.70;99.90;;;;;;4375501;28;658173;-68
2022/11/08 02:46:21;;;;;;;17.43;8.43;;;2.70;99.90;;;;;;4398120;28;657548;-68
2022/11/08 02:49:08;;;;;;;17.93;8.00;;;2.80;99.90;;;;;;4421222;28;658373;-68
2022/11/08 02:51:55;;;;;;;20.73;8.57;;;2.70;99.90;;;;;;4401870;28;658288;-66
2022/11/08 02:54:42;;;;;;;14.33;8.07;;;2.70;99.90;;;;;;4417050;28;659012;-69
2022/11/08 02:57:31;;;;;;;13.03;7.57;;;2.70;99.90;;;;;;4413526;28;658269;-67
2022/11/08 03:00:20;;;;;;;16.03;8.10;;;2.70;99.90;;;;;;4415819;28;658155;-68
2022/11/08 03:03:07;;;;;;;19.93;7.87;;;2.70;99.90;;;;;;4397040;28;659184;-68
2022/11/08 03:05:56;;;;;;;18.20;7.40;;;2.70;99.90;;;;;;4409211;28;658466;-68
2022/11/08 03:08:43;;;;;;;13.60;7.80;;;2.60;99.90;;;;;;4392771;28;659149;-69
2022/11/08 03:11:33;;;;;;;19.97;8.10;;;2.60;99.90;;;;;;4396502;28;657649;-67
2022/11/08 03:14:20;;;;;;;12.67;7.77;;;2.70;99.90;;;;;;4409746;28;657356;-66
2022/11/08 03:17:13;;;;;;;15.33;7.83;;;2.70;99.90;;;;;;4415539;28;658481;-68
2022/11/08 03:20:03;;;;;;;21.17;8.67;;;2.70;99.90;;;;;;4383087;28;657466;-68
2022/11/08 03:22:56;;;;;;;22.10;8.13;;;2.60;99.90;;;;;;4398810;28;657404;-67
2022/11/08 03:25:46;;;;;;;17.37;8.17;;;2.60;99.90;;;;;;4392617;28;657850;-68
2022/11/08 03:28:37;;;;;;;14.90;8.43;;;2.60;99.90;;;;;;4392077;28;658295;-68
2022/11/08 03:31:27;;;;;;;15.83;8.30;;;2.60;99.90;;;;;;4392201;28;657856;-69
2022/11/08 03:34:20;;;;;;;16.53;8.63;;;2.60;99.90;;;;;;4414727;28;657658;-67
2022/11/08 03:37:10;;;;;;;27.23;10.93;;;2.60;99.90;;;;;;4387765;28;658657;-68
2022/11/08 03:40:01;;;;;;;20.13;9.57;;;2.60;99.90;;;;;;4385138;28;659266;-68
2022/11/08 03:42:52;;;;;;;22.67;9.47;;;2.60;99.90;;;;;;4369316;28;657484;-68
2022/11/08 03:45:44;;;;;;;15.33;8.57;;;2.60;99.90;;;;;;4398185;28;657472;-67
2022/11/08 03:48:34;;;;;;;17.33;8.13;;;2.50;99.90;;;;;;4380058;28;657614;-68
2022/11/08 03:51:27;;;;;;;14.00;8.43;;;2.50;99.90;;;;;;4379721;28;657549;-68
2022/11/08 03:54:14;;;;;;;15.50;8.30;;;2.50;99.90;;;;;;4371769;28;658260;-69
2022/11/08 03:57:01;;;;;;;14.90;8.10;;;2.50;99.90;;;;;;4379659;28;657298;-68
2022/11/08 03:59:51;;;;;;;17.60;8.23;;;2.50;99.90;;;;;;4398433;28;658805;-68
2022/11/08 04:02:38;;;;;;;17.17;8.37;;;2.50;99.90;;;;;;4375560;28;658191;-69
2022/11/08 04:05:25;;;;;;;20.63;8.45;;;2.50;99.90;;;;;;4379560;28;657641;-67
2022/11/08 04:08:14;;;;;;;16.07;8.60;;;2.50;99.90;;;;;;4398413;28;659408;-68
2022/11/08 04:17:08;;;;;;;17.40;8.67;;;2.50;99.90;;;;;;4374139;28;659207;-68
2022/11/08 04:23:03;;;;;;;21.43;9.03;;;2.60;99.90;;;;;;4360199;28;658238;-67
2022/11/08 04:25:57;;;;;;;15.37;8.10;;;2.50;99.90;;;;;;4391648;28;657488;-67
2022/11/08 04:28:44;;;;;;;15.80;8.53;;;2.50;99.90;;;;;;4375538;28;658217;-68
2022/11/08 04:31:31;;;;;;;15.70;9.40;;;2.50;99.90;;;;;;4379756;28;657585;-68
2022/11/08 04:34:18;;;;;;;18.13;9.43;;;2.50;99.90;;;;;;4397792;28;658972;-68
2022/11/08 04:37:05;;;;;;;16.73;9.23;;;2.50;99.90;;;;;;4379054;28;658277;-68
2022/11/08 04:39:53;;;;;;;19.53;9.23;;;2.50;99.90;;;;;;4397890;28;659014;-69
2022/11/08 04:42:45;;;;;;;16.97;8.73;;;2.50;99.90;;;;;;4407935;28;657434;-67
2022/11/08 04:45:32;;;;;;;17.67;9.23;;;2.50;99.90;;;;;;4392244;28;659285;-69
2022/11/08 04:48:19;;;;;;;18.63;8.87;;;2.40;99.90;;;;;;4413640;28;658103;-69
2022/11/08 04:51:07;;;;;;;15.70;8.80;;;2.50;99.90;;;;;;4396217;28;657925;-68
2022/11/08 04:53:55;;;;;;;17.87;9.13;;;2.50;99.90;;;;;;4414718;28;657477;-69
2022/11/08 04:56:42;;;;;;;21.20;9.47;;;2.50;99.90;;;;;;4395893;28;658398;-68
2022/11/08 04:59:31;;;;;;;20.60;9.40;;;2.60;99.90;;;;;;4396315;28;657813;-68
2022/11/08 05:02:18;;;;;;;15.53;9.07;;;2.50;99.90;;;;;;4373948;28;658302;-68
2022/11/08 05:05:06;;;;;;;17.17;8.80;;;2.60;99.90;;;;;;4385712;28;657632;-67
2022/11/08 05:07:54;;;;;;;14.33;8.20;;;2.50;99.90;;;;;;4396350;28;658891;-68
2022/11/08 05:10:41;;;;;;;20.23;8.53;;;2.60;99.90;;;;;;4376338;28;657837;-68
2022/11/08 05:13:28;;;;;;;19.90;8.87;;;2.60;99.90;;;;;;4396315;28;658546;-68
2022/11/08 05:16:17;;;;;;;17.73;8.73;;;2.60;99.90;;;;;;4376964;28;657586;-67
2022/11/08 05:19:05;;;;;;;12.60;7.57;;;2.50;99.90;;;;;;4391245;28;657822;-67
2022/11/08 05:24:57;;;;;;;36.47;12.90;;;2.50;99.90;;;;;;4377396;28;657783;-69
2022/11/08 05:27:44;;;;;;;24.90;10.50;;;2.60;99.90;;;;;;4394625;28;658712;-69
2022/11/08 05:30:31;;;;;;;23.40;10.57;;;2.60;99.90;;;;;;4372038;28;659366;-68
2022/11/08 05:33:20;;;;;;;22.63;9.73;;;2.60;99.90;;;;;;4394701;28;659261;-68
2022/11/08 05:36:09;;;;;;;17.33;8.37;;;2.60;99.90;;;;;;4373020;28;658666;-67
2022/11/08 05:38:56;;;;;;;17.40;9.00;;;2.60;99.90;;;;;;4373125;28;657650;-68
2022/11/08 05:41:43;;;;;;;16.57;8.43;;;2.70;99.90;;;;;;4396149;28;658092;-68
2022/11/08 05:44:30;;;;;;;19.80;8.55;;;2.70;99.90;;;;;;4377050;28;657463;-67
2022/11/08 05:47:17;;;;;;;19.63;7.53;;;2.70;99.90;;;;;;4395679;28;658965;-68
2022/11/08 05:50:07;;;;;;;24.77;12.37;;;2.60;99.90;;;;;;4395742;28;658207;-68
2022/11/08 05:52:54;;;;;;;29.47;13.57;;;2.60;99.90;;;;;;4371804;28;659065;-68
2022/11/08 05:55:41;;;;;;;32.87;15.80;;;2.70;99.90;;;;;;4380484;28;658247;-67
2022/11/08 05:58:29;;;;;;;42.00;19.10;;;2.70;99.90;;;;;;4411646;28;659142;-68
2022/11/08 06:01:17;;;;;;;39.03;17.67;;;2.70;99.90;;;;;;4399687;28;658612;-68
2022/11/08 06:04:04;;;;;;;39.93;18.53;;;2.80;99.90;;;;;;4418303;28;660135;-68
2022/11/08 06:06:53;;;;;;;25.53;11.33;;;2.80;99.90;;;;;;4396356;28;658652;-68
2022/11/08 06:09:40;;;;;;;23.80;11.13;;;2.80;99.90;;;;;;4407550;28;658978;-68
2022/11/08 06:12:27;;;;;;;25.67;11.57;;;2.90;99.90;;;;;;4418693;28;660375;-68
2022/11/08 06:15:14;;;;;;;25.13;12.33;;;2.90;99.90;;;;;;4418658;28;658332;-68
2022/11/08 06:18:02;;;;;;;24.07;11.20;;;3.00;99.90;;;;;;4399620;28;660134;-67
2022/11/08 06:20:50;;;;;;;23.30;9.30;;;3.10;99.90;;;;;;4417364;28;658694;-68
2022/11/08 06:23:39;;;;;;;22.73;10.67;;;3.10;99.90;;;;;;4423996;28;658991;-68
2022/11/08 06:26:26;;;;;;;30.30;14.50;;;3.30;99.90;;;;;;4399449;28;658640;-68
2022/11/08 06:29:13;;;;;;;31.67;15.27;;;3.40;99.90;;;;;;4420639;28;659678;-68
2022/11/08 06:32:00;;;;;;;29.23;15.18;;;3.50;99.90;;;;;;4399355;28;658773;-67
2022/11/08 06:34:47;;;;;;;25.63;13.87;;;3.60;99.90;;;;;;4422430;28;659745;-68
2022/11/08 06:37:35;;;;;;;31.53;15.50;;;3.70;99.90;;;;;;4416313;28;658725;-67
2022/11/08 06:40:24;;;;;;;24.40;12.90;;;3.90;99.90;;;;;;4418540;28;661136;-68
2022/11/08 06:43:11;;;;;;;31.50;13.67;;;4.00;99.90;;;;;;4398916;28;659096;-67
2022/11/08 06:46:01;;;;;;;30.83;15.30;;;4.00;99.90;;;;;;4417604;28;659224;-68
2022/11/08 06:48:48;;;;;;;59.53;27.37;;;4.10;99.90;;;;;;4394639;28;659068;-68
2022/11/08 06:51:35;;;;;;;105.23;15.70;;;4.20;99.90;;;;;;4407366;28;658644;-68
2022/11/08 06:54:22;;;;;;;60.43;26.47;;;4.40;99.90;;;;;;4420490;28;660275;-68
2022/11/08 06:57:11;;;;;;;67.10;29.60;;;4.50;99.90;;;;;;4415647;28;659962;-68
2022/11/08 06:59:58;;;;;;;56.80;28.23;;;4.70;99.90;;;;;;4377527;28;658862;-68
2022/11/08 07:02:45;;;;;;;33.05;15.30;;;4.90;99.90;;;;;;4381379;28;658651;-68
2022/11/08 07:05:33;;;;;;;64.70;26.83;;;5.10;99.90;;;;;;4402204;28;658600;-68
2022/11/08 07:08:20;;;;;;;37.50;20.00;;;5.30;99.90;;;;;;4382697;28;658860;-67
2022/11/08 07:11:08;;;;;;;46.17;24.67;;;5.40;99.90;;;;;;4397358;28;659815;-68
2022/11/08 07:13:57;;;;;;;52.93;24.30;;;5.70;99.90;;;;;;4378161;28;658656;-67
2022/11/08 07:16:44;;;;;;;35.43;16.97;;;5.90;99.90;;;;;;4396899;28;658470;-68
2022/11/08 07:19:31;;;;;;;39.20;22.90;;;6.10;99.90;;;;;;4377610;28;658368;-68
2022/11/08 07:22:18;;;;;;;56.70;31.27;;;6.30;99.90;;;;;;4397060;28;658993;-68
2022/11/08 07:25:07;;;;;;;44.27;22.93;;;6.50;99.90;;;;;;4378446;28;658705;-68
2022/11/08 07:27:55;;;;;;;52.73;28.77;;;6.70;99.90;;;;;;4396119;28;659281;-69
2022/11/08 07:30:43;;;;;;;49.20;23.57;;;6.90;99.90;;;;;;4374237;28;659816;-68
2022/11/08 07:33:31;;;;;;;46.70;26.57;;;7.10;99.90;;;;;;4378167;28;659290;-68
2022/11/08 07:36:18;;;;;;;37.63;20.73;;;7.40;99.90;;;;;;4399588;28;659294;-68
2022/11/08 07:39:05;;;;;;;24.33;14.43;;;7.50;99.90;;;;;;4380042;28;658613;-68
2022/11/08 07:41:52;;;;;;;31.73;18.60;;;7.80;99.90;;;;;;4414133;28;658631;-68
2022/11/08 07:44:39;;;;;;;22.00;11.17;;;8.00;99.90;;;;;;4413877;28;658612;-68
2022/11/08 07:47:28;;;;;;;14.23;8.37;;;8.20;99.90;;;;;;4395089;28;659266;-68
2022/11/08 07:50:16;;;;;;;14.53;8.00;;;8.50;99.90;;;;;;4398353;28;657665;-67
2022/11/08 07:53:03;;;;;;;16.83;8.30;;;8.80;99.90;;;;;;4415117;28;658281;-69
2022/11/08 07:55:51;;;;;;;14.77;8.43;;;9.20;99.90;;;;;;4396185;28;657364;-68
2022/11/08 07:58:38;;;;;;;17.00;9.00;;;9.60;99.90;;;;;;4416069;28;657884;-68
2022/11/08 08:01:25;;;;;;;14.67;8.77;;;10.20;99.90;;;;;;4401636;28;658313;-68
2022/11/08 08:04:14;;;;;;;18.05;9.30;;;10.90;99.90;;;;;;4418464;28;659030;-69
2022/11/08 08:07:01;;;;;;;15.03;9.03;;;11.40;99.90;;;;;;4395646;28;658893;-68
2022/11/08 08:09:48;;;;;;;18.73;9.37;;;11.90;99.90;;;;;;4416765;28;659824;-69
2022/11/08 08:12:35;;;;;;;16.03;9.03;;;12.40;99.90;;;;;;4397704;28;659195;-68
2022/11/08 08:15:22;;;;;;;10.77;6.05;;;12.80;99.90;;;;;;4418179;28;659632;-69
2022/11/08 08:18:11;;;;;;;9.73;5.00;;;13.20;99.90;;;;;;4414427;28;659069;-68
2022/11/08 08:20:59;;;;;;;6.33;4.53;;;13.40;99.90;;;;;;4392942;28;658140;-69
2022/11/08 08:23:46;;;;;;;8.27;4.57;;;13.20;99.90;;;;;;4394722;28;657628;-68
2022/11/08 08:26:33;;;;;;;7.13;4.37;;;13.30;99.90;;;;;;4415430;28;659123;-65
2022/11/08 08:29:21;;;;;;;9.37;4.30;;;13.80;99.90;;;;;;4396271;28;657564;-65
2022/11/08 08:32:08;;;;;;;6.70;4.10;;;14.10;99.90;;;;;;4419334;28;658885;-64
2022/11/08 08:34:55;;;;;;;10.43;4.50;;;14.30;99.90;;;;;;4399726;28;657689;-66
2022/11/08 08:37:44;;;;;;;7.93;3.80;;;14.30;99.90;;;;;;4417887;28;658627;-64
2022/11/08 08:40:31;;;;;;;7.07;4.30;;;14.10;99.90;;;;;;4392932;28;657896;-65
2022/11/08 08:43:18;;;;;;;9.80;4.47;;;14.10;99.90;;;;;;4414873;28;658709;-64
2022/11/08 08:46:06;;;;;;;10.98;4.28;;;14.40;99.90;;;;;;4396093;28;657964;-65
2022/11/08 08:48:53;;;;;;;9.60;4.73;;;14.80;99.90;;;;;;4409185;28;659610;-64
2022/11/08 08:51:40;;;;;;;8.90;4.20;;;15.00;99.90;;;;;;4394957;28;657839;-66
2022/11/08 08:54:29;;;;;;;10.40;4.80;;;15.40;99.90;;;;;;4418161;28;658334;-64
2022/11/08 08:57:16;;;;;;;12.17;4.60;;;15.80;99.90;;;;;;4391440;28;658425;-64
2022/11/08 09:00:03;;;;;;;10.93;5.23;;;15.90;99.90;;;;;;4411602;28;659967;-64
2022/11/08 09:02:51;;;;;;;8.63;4.77;;;16.50;99.90;;;;;;4394821;28;658717;-65
2022/11/08 09:05:40;;;;;;;9.37;4.10;;;16.30;98.90;;;;;;4419058;28;658578;-64
2022/11/08 09:08:27;;;;;;;9.77;4.80;;;16.70;97.10;;;;;;4391918;28;658457;-64
2022/11/08 09:11:16;;;;;;;9.03;4.57;;;17.00;97.20;;;;;;4414750;28;657472;-64
2022/11/08 09:14:03;;;;;;;9.73;4.90;;;17.60;96.40;;;;;;4391643;28;658158;-64
2022/11/08 09:16:50;;;;;;;6.33;3.27;;;17.40;93.10;;;;;;4395914;28;657363;-65
2022/11/08 09:19:37;;;;;;;5.20;3.10;;;17.90;92.60;;;;;;4419062;28;658786;-64
2022/11/08 09:22:24;;;;;;;8.63;2.93;;;17.40;91.00;;;;;;4414485;28;657460;-64
2022/11/08 09:25:12;;;;;;;10.43;3.40;;;17.40;91.20;;;;;;4395603;28;658475;-64
2022/11/08 09:28:00;;;;;;;7.73;3.60;;;17.80;90.80;;;;;;4413160;28;659609;-63
2022/11/08 09:30:47;;;;;;;6.27;3.40;;;17.60;90.50;;;;;;4395412;28;658802;-64
2022/11/08 09:33:35;;;;;;;7.90;3.20;;;17.70;85.40;;;;;;4414391;28;657928;-64
2022/11/08 09:36:22;;;;;;;9.37;3.13;;;17.80;89.80;;;;;;4391599;28;659612;-63
2022/11/08 09:39:09;;;;;;;7.20;3.33;;;17.60;82.80;;;;;;4414000;28;658994;-63
2022/11/08 09:42:28;;;;;;;6.47;3.40;;;17.40;84.60;;;;;;4395391;28;658295;-64
2022/11/08 09:45:21;;;;;;;9.27;4.20;;;17.60;90.60;;;;;;4376222;28;657539;-64
2022/11/08 09:48:13;;;;;;;8.33;3.60;;;18.40;86.40;;;;;;4391348;28;659303;-64
2022/11/08 09:51:01;;;;;;;7.30;3.30;;;18.60;81.60;;;;;;4372444;28;658871;-63
2022/11/08 09:53:51;;;;;;;6.77;2.97;;;18.40;82.20;;;;;;4413825;28;657780;-63
2022/11/08 09:56:39;;;;;;;5.53;2.60;;;16.70;85.40;;;;;;4395302;28;658010;-63
2022/11/08 09:59:32;;;;;;;5.57;2.70;;;17.10;89.90;;;;;;4391427;28;657576;-65
2022/11/08 10:02:22;;;;;;;5.83;2.70;;;17.30;81.90;;;;;;4390302;28;659011;-64
2022/11/08 10:05:14;;;;;;;6.27;2.83;;;17.50;82.70;;;;;;4386338;28;657980;-65
2022/11/08 10:08:05;;;;;;;5.63;3.20;;;17.80;80.10;;;;;;4390619;28;657178;-64
2022/11/08 10:11:06;;;;;;;5.73;3.07;;;17.80;81.20;;;;;;4394503;28;658429;-63
2022/11/08 10:14:01;;;;;;;5.87;2.70;;;17.70;85.80;;;;;;4390176;28;658254;-63
2022/11/08 10:16:52;;;;;;;4.30;2.30;;;17.60;81.20;;;;;;4394108;28;657672;-63
2022/11/08 10:19:50;;;;;;;4.93;2.60;;;16.30;81.40;;;;;;4390196;28;659285;-63
2022/11/08 10:22:43;;;;;;;5.53;2.77;;;17.10;81.20;;;;;;4367340;28;658150;-63
2022/11/08 10:25:33;;;;;;;4.63;2.00;;;17.30;80.40;;;;;;4371187;28;657637;-64
2022/11/08 10:28:22;;;;;;;2.90;1.77;;;16.90;82.70;;;;;;4395677;28;658985;-64
2022/11/08 10:31:11;;;;;;;5.37;2.20;;;17.00;81.10;;;;;;4413026;28;657876;-62
2022/11/08 10:33:58;;;;;;;3.50;1.87;;;17.20;80.50;;;;;;4390359;28;658050;-63
2022/11/08 10:36:48;;;;;;;4.07;2.30;;;17.30;79.10;;;;;;4393999;28;657642;-64
2022/11/08 10:39:38;;;;;;;6.07;2.30;;;17.40;80.10;;;;;;4405231;28;657590;-65
2022/11/08 10:42:31;;;;;;;5.43;2.23;;;17.90;80.60;;;;;;4407620;28;658625;-64
2022/11/08 10:45:18;;;;;;;6.00;2.30;;;17.70;77.70;;;;;;4397335;28;658417;-63
2022/11/08 10:48:06;;;;;;;3.97;2.20;;;18.40;78.80;;;;;;4397011;28;657574;-63
2022/11/08 10:50:54;;;;;;;5.17;2.27;;;18.40;73.10;;;;;;4415631;28;658676;-63
2022/11/08 10:53:44;;;;;;;5.87;2.50;;;17.90;72.80;;;;;;4397201;28;657619;-63
2022/11/08 10:56:31;;;;;;;4.07;2.27;;;18.40;76.80;;;;;;4397209;28;658371;-63
2022/11/08 10:59:30;;;;;;;5.27;2.50;;;18.60;72.50;;;;;;4400526;28;658048;-63
2022/11/08 11:02:20;;;;;;;3.67;2.17;;;19.00;71.90;;;;;;4352805;28;658927;-64
2022/11/08 11:05:20;;;;;;;7.07;2.30;;;18.00;73.20;;;;;;4377650;28;659811;-63
2022/11/08 11:08:15;;;;;;;4.27;1.93;;;18.30;71.50;;;;;;4355071;28;660523;-63
2022/11/08 11:11:22;;;;;;;5.30;2.00;;;18.80;68.20;;;;;;4354672;28;658200;-63
2022/11/08 11:14:12;;;;;;;3.23;2.03;;;18.40;69.90;;;;;;4372626;28;658458;-63
2022/11/08 11:17:02;;;;;;;6.10;2.20;;;17.40;73.00;;;;;;4377617;28;657793;-63
2022/11/08 11:19:53;;;;;;;4.30;2.17;;;18.30;70.30;;;;;;4381400;28;657742;-64
2022/11/08 11:22:40;;;;;;;7.20;2.23;;;18.40;74.20;;;;;;4367958;28;658516;-64
2022/11/08 11:25:27;;;;;;;4.13;1.67;;;18.50;65.80;;;;;;4404140;28;658129;-63
2022/11/08 11:28:16;;;;;;;4.20;1.80;;;19.10;66.30;;;;;;4399670;28;658660;-64
2022/11/08 11:31:04;;;;;;;4.70;1.80;;;19.00;65.50;;;;;;4377497;28;658580;-63
2022/11/08 11:33:51;;;;;;;4.53;2.10;;;18.60;68.40;;;;;;4373693;28;657450;-63
2022/11/08 11:36:38;;;;;;;4.43;1.60;;;19.10;65.50;;;;;;4399448;28;659053;-63
2022/11/08 11:39:27;;;;;;;3.53;1.70;;;19.70;62.20;;;;;;4380995;28;658217;-64
2022/11/08 11:42:16;;;;;;;6.07;1.60;;;19.50;62.00;;;;;;4413750;28;658054;-64
2022/11/08 11:45:12;;;;;;;4.40;2.00;;;19.10;64.00;;;;;;4390995;28;658369;-63
2022/11/08 11:48:02;;;;;;;5.77;1.70;;;19.50;63.40;;;;;;4387650;28;658763;-65
2022/11/08 11:50:49;;;;;;;5.50;1.90;;;20.20;63.80;;;;;;4415232;28;658326;-64
2022/11/08 11:53:37;;;;;;;5.50;2.10;;;20.80;59.30;;;;;;4396330;28;657816;-64
2022/11/08 11:56:32;;;;;;;3.33;1.77;;;21.10;58.50;;;;;;4415011;28;658168;-64
2022/11/08 11:59:48;;;;;;;2.88;1.85;;;21.80;56.50;;;;;;4356444;28;658879;-64
2022/11/08 12:03:01;;;;;;;3.33;1.60;;;21.30;57.30;;;;;;4340899;28;658482;-64
2022/11/08 12:06:04;;;;;;;3.03;1.90;;;22.30;54.10;;;;;;4345874;28;658760;-63
2022/11/08 12:09:01;;;;;;;4.33;2.30;;;21.60;53.50;;;;;;4331637;28;658149;-63
2022/11/08 12:11:54;;;;;;;5.03;1.80;;;20.60;57.00;;;;;;4356211;28;657924;-64
2022/11/08 12:14:55;;;;;;;5.20;2.23;;;21.70;54.50;;;;;;4360582;28;657580;-63
2022/11/08 12:18:03;;;;;;;3.47;2.30;;;22.20;52.70;;;;;;4333551;28;658010;-64
2022/11/08 12:20:59;;;;;;;4.83;2.37;;;21.80;54.80;;;;;;4346644;28;658638;-65
2022/11/08 12:24:10;;;;;;;5.33;2.30;;;21.80;53.50;;;;;;4360340;28;657771;-64
2022/11/08 12:27:01;;;;;;;5.67;2.50;;;23.70;51.90;;;;;;4330032;28;659040;-63
2022/11/08 12:29:51;;;;;;;4.97;2.60;;;23.40;50.00;;;;;;4356289;28;658592;-63
2022/11/08 12:33:07;;;;;;;5.43;2.83;;;22.50;50.70;;;;;;4356015;28;658530;-63
2022/11/08 12:36:01;;;;;;;4.77;2.70;;;23.00;52.10;;;;;;4357069;28;657412;-64
2022/11/08 12:38:56;;;;;;;6.67;2.83;;;23.80;50.30;;;;;;4356244;28;658842;-64
2022/11/08 12:41:48;;;;;;;5.85;2.90;;;23.10;49.50;;;;;;4370291;28;657996;-64
2022/11/08 12:44:57;;;;;;;6.85;3.25;;;24.20;51.60;;;;;;4368406;28;657755;-64
2022/11/08 12:47:46;;;;;;;5.50;2.50;;;23.40;48.60;;;;;;4371867;28;657905;-63
2022/11/08 12:50:37;;;;;;;5.33;2.77;;;23.20;49.10;;;;;;4374398;28;658865;-64
2022/11/08 12:53:41;;;;;;;8.07;2.93;;;22.70;50.70;;;;;;4370680;28;657543;-65
2022/11/08 12:56:29;;;;;;;5.33;2.83;;;21.70;52.90;;;;;;4374068;28;658423;-64
2022/11/08 12:59:19;;;;;;;5.83;2.87;;;22.90;49.30;;;;;;4392366;28;658509;-64
2022/11/08 13:02:13;;;;;;;5.80;2.53;;;21.70;51.70;;;;;;4392230;28;658185;-64
2022/11/08 13:05:01;;;;;;;6.17;3.00;;;22.90;50.30;;;;;;4372538;28;657434;-64
2022/11/08 13:07:52;;;;;;;5.77;2.87;;;23.10;51.40;;;;;;4414445;28;659236;-63
2022/11/08 13:10:46;;;;;;;7.30;3.40;;;25.10;47.70;;;;;;4395952;28;657751;-64
2022/11/08 13:13:37;;;;;;;4.22;2.75;;;25.60;47.80;;;;;;4392026;28;658536;-63
2022/11/08 13:16:25;;;;;;;7.80;3.08;;;25.40;45.60;;;;;;4391849;28;657753;-63
2022/11/08 13:19:28;;;;;;;9.87;4.00;;;25.30;46.60;;;;;;4391971;28;659022;-64
2022/11/08 13:22:43;;;;;;;5.40;3.47;;;24.40;47.10;;;;;;4395801;28;657951;-65
2022/11/08 13:25:39;;;;;;;8.45;3.50;;;25.70;47.00;;;;;;4377602;28;657469;-65
2022/11/08 13:28:42;;;;;;;6.82;3.75;;;25.40;47.20;;;;;;4369199;28;658488;-64
2022/11/08 13:31:44;;;;;;;6.13;3.50;;;25.80;45.10;;;;;;4391583;28;657632;-64
2022/11/08 13:34:40;;;;;;;11.68;4.22;;;24.80;47.20;;;;;;4368750;28;658902;-64
2022/11/08 13:37:41;;;;;;;7.13;3.83;;;26.50;44.50;;;;;;4367698;28;659954;-63
2022/11/08 13:40:44;;;;;;;7.82;4.20;;;26.10;44.60;;;;;;4390998;28;658282;-64
2022/11/08 13:43:31;;;;;;;10.60;4.00;;;26.60;44.60;;;;;;4372143;28;658096;-64
2022/11/08 13:46:46;;;;;;;6.50;3.72;;;27.00;42.40;;;;;;4412213;28;660097;-63
2022/11/08 13:49:33;;;;;;;10.32;5.05;;;26.20;42.50;;;;;;4390680;28;657937;-63
2022/11/08 13:52:43;;;;;;;8.10;4.20;;;25.50;44.60;;;;;;4398296;28;658898;-64
2022/11/08 13:55:48;;;;;;;10.07;4.30;;;26.20;45.10;;;;;;4371813;28;657863;-64
2022/11/08 13:58:36;;;;;;;8.68;4.38;;;25.70;45.80;;;;;;4360972;28;659395;-65
2022/11/08 14:01:56;;;;;;;7.95;3.53;;;25.70;46.40;;;;;;4395979;28;658855;-63
2022/11/08 14:04:44;;;;;;;8.40;3.87;;;25.60;44.30;;;;;;4373005;28;657445;-63
2022/11/08 14:07:33;;;;;;;8.17;3.97;;;24.40;45.70;;;;;;4377218;28;658129;-64
2022/11/08 14:10:23;;;;;;;14.32;4.28;;;23.30;48.20;;;;;;4376884;28;657533;-64
2022/11/08 14:13:15;;;;;;;5.20;3.10;;;24.10;47.40;;;;;;4385964;28;659137;-65
2022/11/08 14:16:03;;;;;;;6.67;3.60;;;23.00;49.30;;;;;;4375530;28;659606;-63
2022/11/08 14:18:50;;;;;;;9.03;3.80;;;23.60;48.30;;;;;;4374175;28;657842;-64
2022/11/08 14:21:38;;;;;;;10.40;4.03;;;23.70;48.00;;;;;;4399411;28;659109;-64
2022/11/08 14:24:26;;;;;;;8.93;3.70;;;24.30;47.60;;;;;;4389064;28;658481;-65
2022/11/08 14:27:14;;;;;;;9.43;3.93;;;23.40;47.50;;;;;;4399191;28;659283;-64
2022/11/08 14:30:03;;;;;;;6.15;3.28;;;21.80;49.20;;;;;;4380058;28;658105;-64
2022/11/08 14:33:05;;;;;;;7.53;4.07;;;21.10;51.90;;;;;;4380522;28;657773;-65
2022/11/08 14:35:53;;;;;;;12.57;3.53;;;20.10;52.30;;;;;;4353378;28;657471;-64
2022/11/08 14:38:46;;;;;;;6.10;3.80;;;18.80;56.20;;;;;;4378966;28;658497;-64
2022/11/08 14:41:33;;;;;;;8.53;4.07;;;17.70;60.40;;;;;;4386980;28;658785;-64
2022/11/08 14:44:20;;;;;;;9.33;3.70;;;16.60;66.30;;;;;;4397409;28;657578;-65
2022/11/08 14:47:23;;;;;;;9.03;4.07;;;15.90;72.50;;;;;;4420264;28;658762;-65
2022/11/08 14:50:16;;;;;;;9.07;3.63;;;15.30;79.70;;;;;;4374032;28;658675;-64
2022/11/08 14:53:19;;;;;;;6.57;3.67;;;14.80;86.50;;;;;;4393378;28;659186;-64